Home > Products > Valid Products > TAF

000
FTUS42 KTBW 230259 AAA
TAFTPA
TAF AMD
KTPA 230259Z 2303/2324 12005KT P6SM FEW040 BKN250
     FM230600 08005KT P6SM SCT250
     FM232000 07008KT P6SM VCTS SCT050CB BKN100=



000
FTUS42 KTBW 230259 AAA
TAFTPA
TAF AMD
KTPA 230259Z 2303/2324 12005KT P6SM FEW040 BKN250
     FM230600 08005KT P6SM SCT250
     FM232000 07008KT P6SM VCTS SCT050CB BKN100=



000
FTUS42 KTBW 230052 AAA
TAFSRQ
TAF AMD
KSRQ 230052Z 2301/2324 32006KT P6SM VCTS SCT050CB SCT250
     FM230300 06005KT P6SM FEW050 SCT250
     FM231700 15008KT P6SM BKN250
     FM232000 06006KT P6SM VCTS SCT050CB BKN250=



000
FTUS42 KTBW 230052 AAA
TAFSRQ
TAF AMD
KSRQ 230052Z 2301/2324 32006KT P6SM VCTS SCT050CB SCT250
     FM230300 06005KT P6SM FEW050 SCT250
     FM231700 15008KT P6SM BKN250
     FM232000 06006KT P6SM VCTS SCT050CB BKN250=



000
FTUS42 KTBW 222337
TAFPIE
TAF
KPIE 222337Z 2300/2324 32011KT P6SM SCT250
     FM230400 06005KT P6SM FEW040 SCT200
     FM232100 07008KT P6SM VCTS SCT050CB BKN100=



000
FTUS42 KTBW 222337
TAFFMY
TAF
KFMY 222337Z 2300/2324 11004KT P6SM VCSH SCT045 BKN150
     FM230200 VRB04KT P6SM FEW040 SCT250
     FM231600 08008KT P6SM SCT050 BKN250
     FM232100 09008KT P6SM VCTS SCT050CB BKN090=



000
FTUS42 KTBW 222337
TAFSRQ
TAF
KSRQ 222337Z 2300/2324 32006KT P6SM FEW050 SCT250
     FM230400 06005KT P6SM FEW050 SCT250
     FM231700 15008KT P6SM BKN250
     FM232000 06006KT P6SM VCTS SCT050CB BKN250=



000
FTUS42 KTBW 222337
TAFTPA
TAF
KTPA 222337Z 2300/2324 33008KT P6SM SCT250
     FM230200 08005KT P6SM FEW040 SCT200
     FM232000 07008KT P6SM VCTS SCT050CB BKN100=



000
FTUS42 KTBW 222337
TAFPIE
TAF
KPIE 222337Z 2300/2324 32011KT P6SM SCT250
     FM230400 06005KT P6SM FEW040 SCT200
     FM232100 07008KT P6SM VCTS SCT050CB BKN100=



000
FTUS42 KTBW 222337
TAFRSW
TAF
KRSW 222337Z 2300/2324 12004KT P6SM VCSH SCT050 BKN150
     FM230200 VRB04KT P6SM FEW040 SCT250
     FM231600 08008KT P6SM SCT050 BKN250
     FM232100 09008KT P6SM VCTS SCT050CB BKN090=



000
FTUS42 KTBW 222337
TAFTPA
TAF
KTPA 222337Z 2300/2324 33008KT P6SM SCT250
     FM230200 08005KT P6SM FEW040 SCT200
     FM232000 07008KT P6SM VCTS SCT050CB BKN100=



000
FTUS42 KTBW 222337
TAFRSW
TAF
KRSW 222337Z 2300/2324 12004KT P6SM VCSH SCT050 BKN150
     FM230200 VRB04KT P6SM FEW040 SCT250
     FM231600 08008KT P6SM SCT050 BKN250
     FM232100 09008KT P6SM VCTS SCT050CB BKN090=



000
FTUS42 KTBW 222337
TAFFMY
TAF
KFMY 222337Z 2300/2324 11004KT P6SM VCSH SCT045 BKN150
     FM230200 VRB04KT P6SM FEW040 SCT250
     FM231600 08008KT P6SM SCT050 BKN250
     FM232100 09008KT P6SM VCTS SCT050CB BKN090=



000
FTUS42 KTBW 222337
TAFSRQ
TAF
KSRQ 222337Z 2300/2324 32006KT P6SM FEW050 SCT250
     FM230400 06005KT P6SM FEW050 SCT250
     FM231700 15008KT P6SM BKN250
     FM232000 06006KT P6SM VCTS SCT050CB BKN250=



000
FTUS42 KTBW 222235 AAA
TAFFMY
TAF AMD
KFMY 222235Z 2223/2318 VRB10G18KT 3SM TSRA BKN040CB BKN100
     FM222315 10010KT P6SM VCTS BKN050CB BKN250
     FM230200 VRB04KT P6SM SCT250
     FM231300 08009KT P6SM SCT030 SCT250=



000
FTUS42 KTBW 222155 AAB
TAFRSW
TAF AMD
KRSW 222155Z 2222/2318 10004KT P6SM VCTS BKN060CB BKN250
     FM230300 VRB03KT P6SM SCT250
     FM231300 09009KT P6SM SCT030 SCT250=



000
FTUS42 KTBW 222125 AAA
TAFRSW
TAF AMD
KRSW 222125Z 2221/2318 VRB10G18KT 1 1/2SM TSRA BKN030CB BKN250
     FM222245 30008KT P6SM VCTS BKN040CB BKN250
     FM230300 VRB03KT P6SM SCT250
     FM231300 09009KT P6SM SCT030 SCT250=



000
FTUS42 KTBW 222042 AAA
TAFTPA
TAF AMD
KTPA 222042Z 2221/2318 33009KT P6SM SCT050 SCT250
     FM230200 VRB04KT P6SM FEW250
     FM231400 07008KT P6SM SCT030 BKN250=



000
FTUS42 KTBW 221739
TAFRSW
TAF
KRSW 221739Z 2218/2318 29010KT P6SM VCTS BKN050CB BKN250
     FM230300 VRB03KT P6SM SCT250
     FM231300 09009KT P6SM SCT030 SCT250=



000
FTUS42 KTBW 221739
TAFPIE
TAF
KPIE 221739Z 2218/2318 04007KT P6SM FEW050 SCT250
     FM222000 33010KT P6SM FEW050 SCT250
     FM230200 07007KT P6SM FEW250
     FM231400 08009KT P6SM FEW030 SCT250=



000
FTUS42 KTBW 221739
TAFSRQ
TAF
KSRQ 221739Z 2218/2318 28010KT P6SM VCSH BKN040 BKN250
     FM230200 VRB04KT P6SM FEW050 SCT250
     FM231400 07008KT P6SM SCT030 BKN250=



000
FTUS42 KTBW 221739
TAFRSW
TAF
KRSW 221739Z 2218/2318 29010KT P6SM VCTS BKN050CB BKN250
     FM230300 VRB03KT P6SM SCT250
     FM231300 09009KT P6SM SCT030 SCT250=



000
FTUS42 KTBW 221739
TAFFMY
TAF
KFMY 221739Z 2218/2318 29010KT P6SM VCTS BKN050CB BKN250
     FM230300 VRB04KT P6SM SCT250
     FM231300 08009KT P6SM SCT030 SCT250=



000
FTUS42 KTBW 221739
TAFPIE
TAF
KPIE 221739Z 2218/2318 04007KT P6SM FEW050 SCT250
     FM222000 33010KT P6SM FEW050 SCT250
     FM230200 07007KT P6SM FEW250
     FM231400 08009KT P6SM FEW030 SCT250=



000
FTUS42 KTBW 221739
TAFTPA
TAF
KTPA 221739Z 2218/2318 33009KT P6SM SCT050 SCT250
     FM230200 VRB04KT P6SM FEW250
     FM231400 07008KT P6SM SCT030 BKN250=



000
FTUS42 KTBW 221739
TAFTPA
TAF
KTPA 221739Z 2218/2318 33009KT P6SM SCT050 SCT250
     FM230200 VRB04KT P6SM FEW250
     FM231400 07008KT P6SM SCT030 BKN250=



000
FTUS42 KTBW 221739
TAFSRQ
TAF
KSRQ 221739Z 2218/2318 28010KT P6SM VCSH BKN040 BKN250
     FM230200 VRB04KT P6SM FEW050 SCT250
     FM231400 07008KT P6SM SCT030 BKN250=



000
FTUS42 KTBW 221739
TAFFMY
TAF
KFMY 221739Z 2218/2318 29010KT P6SM VCTS BKN050CB BKN250
     FM230300 VRB04KT P6SM SCT250
     FM231300 08009KT P6SM SCT030 SCT250=



000
FTUS42 KTBW 221459 AAA
TAFTPA
TAF AMD
KTPA 221459Z 2215/2312 VRB06KT P6SM FEW035 FEW250
     FM221600 31007KT P6SM FEW040 SCT250
     FM222200 33009KT P6SM FEW050 SCT250
     FM230200 VRB06KT P6SM FEW250=



000
FTUS42 KTBW 221120
TAFFMY
TAF
KFMY 221120Z 2212/2312 VRB05KT P6SM FEW250
     FM222100 30007KT P6SM VCTS SCT050CB BKN250
     FM230300 VRB06KT P6SM VCSH SCT050 BKN250
     FM230600 VRB03KT P6SM SCT250=



000
FTUS42 KTBW 221120
TAFPIE
TAF
KPIE 221120Z 2212/2312 VRB06KT P6SM FEW250
     FM221600 32007KT P6SM SCT250
     FM222000 33009KT P6SM FEW050 SCT250
     FM230200 08009KT P6SM FEW250=



000
FTUS42 KTBW 221120
TAFSRQ
TAF
KSRQ 221120Z 2212/2312 VRB06KT P6SM FEW250
     FM221800 29008KT P6SM VCSH FEW050 SCT250
     FM230300 VRB06KT P6SM FEW050 SCT250=



000
FTUS42 KTBW 221120
TAFTPA
TAF
KTPA 221120Z 2212/2312 VRB06KT P6SM FEW250
     FM221600 31007KT P6SM SCT250
     FM222200 33009KT P6SM FEW050 SCT250
     FM230200 VRB06KT P6SM FEW250=



000
FTUS42 KTBW 221120
TAFRSW
TAF
KRSW 221120Z 2212/2312 VRB06KT P6SM FEW250
     FM222000 29007KT P6SM VCTS SCT050CB BKN250
     FM230300 VRB06KT P6SM VCSH SCT050 BKN250
     FM230600 VRB03KT P6SM SCT250=



000
FTUS42 KTBW 221120
TAFSRQ
TAF
KSRQ 221120Z 2212/2312 VRB06KT P6SM FEW250
     FM221800 29008KT P6SM VCSH FEW050 SCT250
     FM230300 VRB06KT P6SM FEW050 SCT250=



000
FTUS42 KTBW 221120
TAFPIE
TAF
KPIE 221120Z 2212/2312 VRB06KT P6SM FEW250
     FM221600 32007KT P6SM SCT250
     FM222000 33009KT P6SM FEW050 SCT250
     FM230200 08009KT P6SM FEW250=



000
FTUS42 KTBW 221120
TAFTPA
TAF
KTPA 221120Z 2212/2312 VRB06KT P6SM FEW250
     FM221600 31007KT P6SM SCT250
     FM222200 33009KT P6SM FEW050 SCT250
     FM230200 VRB06KT P6SM FEW250=



000
FTUS42 KTBW 221120
TAFRSW
TAF
KRSW 221120Z 2212/2312 VRB06KT P6SM FEW250
     FM222000 29007KT P6SM VCTS SCT050CB BKN250
     FM230300 VRB06KT P6SM VCSH SCT050 BKN250
     FM230600 VRB03KT P6SM SCT250=



000
FTUS42 KTBW 221120
TAFFMY
TAF
KFMY 221120Z 2212/2312 VRB05KT P6SM FEW250
     FM222100 30007KT P6SM VCTS SCT050CB BKN250
     FM230300 VRB06KT P6SM VCSH SCT050 BKN250
     FM230600 VRB03KT P6SM SCT250=



000
FTUS42 KTBW 220859 AAA
TAFTPA
TAF AMD
KTPA 220859Z 2209/2306 VRB06KT P6SM FEW250
     FM221600 31007KT P6SM SCT250
     FM222200 33009KT P6SM FEW050 SCT250
     FM230200 04006KT P6SM FEW250=



000
FTUS42 KTBW 220859 AAA
TAFTPA
TAF AMD
KTPA 220859Z 2209/2306 VRB06KT P6SM FEW250
     FM221600 31007KT P6SM SCT250
     FM222200 33009KT P6SM FEW050 SCT250
     FM230200 04006KT P6SM FEW250=



000
FTUS42 KTBW 220541
TAFTPA
TAF
KTPA 220541Z 2206/2306 VRB05KT P6SM SCT250
     FM222200 33009KT P6SM FEW050 SCT250
     FM230200 04008KT P6SM FEW250=



000
FTUS42 KTBW 220541
TAFRSW
TAF
KRSW 220541Z 2206/2306 VRB06KT P6SM FEW250
     FM222000 29007KT P6SM VCTS SCT050CB BKN250
     FM230300 VRB06KT P6SM VCSH SCT050 BKN250=



000
FTUS42 KTBW 220541
TAFSRQ
TAF
KSRQ 220541Z 2206/2306 VRB06KT P6SM FEW250
     FM221800 29008KT P6SM VCSH FEW050 SCT250
     FM230300 VRB06KT P6SM FEW050 SCT250=



000
FTUS42 KTBW 220541
TAFSRQ
TAF
KSRQ 220541Z 2206/2306 VRB06KT P6SM FEW250
     FM221800 29008KT P6SM VCSH FEW050 SCT250
     FM230300 VRB06KT P6SM FEW050 SCT250=



000
FTUS42 KTBW 220541
TAFTPA
TAF
KTPA 220541Z 2206/2306 VRB05KT P6SM SCT250
     FM222200 33009KT P6SM FEW050 SCT250
     FM230200 04008KT P6SM FEW250=



000
FTUS42 KTBW 220541
TAFRSW
TAF
KRSW 220541Z 2206/2306 VRB06KT P6SM FEW250
     FM222000 29007KT P6SM VCTS SCT050CB BKN250
     FM230300 VRB06KT P6SM VCSH SCT050 BKN250=



000
FTUS42 KTBW 220541
TAFPIE
TAF
KPIE 220541Z 2206/2306 VRB06KT P6SM FEW250
     FM222000 33009KT P6SM SCT200
     FM230200 05009KT P6SM FEW250=



000
FTUS42 KTBW 220541
TAFFMY
TAF
KFMY 220541Z 2206/2306 VRB05KT P6SM FEW250
     FM222100 30007KT P6SM VCTS SCT050CB BKN250
     FM230300 VRB06KT P6SM VCSH SCT050 BKN250=



000
FTUS42 KTBW 220541
TAFPIE
TAF
KPIE 220541Z 2206/2306 VRB06KT P6SM FEW250
     FM222000 33009KT P6SM SCT200
     FM230200 05009KT P6SM FEW250=



000
FTUS42 KTBW 220541
TAFFMY
TAF
KFMY 220541Z 2206/2306 VRB05KT P6SM FEW250
     FM222100 30007KT P6SM VCTS SCT050CB BKN250
     FM230300 VRB06KT P6SM VCSH SCT050 BKN250=



000
FTUS42 KTBW 220305 AAA
TAFTPA
TAF AMD
KTPA 220305Z 2203/2224 31005KT P6SM SCT250
     FM221500 VRB06KT P6SM SCT250
     FM222200 33009KT P6SM FEW050 SCT250=



000
FTUS42 KTBW 220305 AAA
TAFTPA
TAF AMD
KTPA 220305Z 2203/2224 31005KT P6SM SCT250
     FM221500 VRB06KT P6SM SCT250
     FM222200 33009KT P6SM FEW050 SCT250=



000
FTUS42 KTBW 212339
TAFTPA
TAF
KTPA 212339Z 2200/2224 31008KT P6SM SCT250
     FM221500 01004KT P6SM SCT250
     FM222200 33009KT P6SM FEW050 SCT250=



000
FTUS42 KTBW 212339
TAFSRQ
TAF
KSRQ 212339Z 2200/2224 30011KT P6SM SKC
     FM220500 30004KT P6SM SCT250
     FM221800 29008KT P6SM SCT250=



000
FTUS42 KTBW 212339
TAFFMY
TAF
KFMY 212339Z 2200/2224 31011KT P6SM SKC
     FM220400 30005KT P6SM SCT250
     FM222100 31007KT P6SM VCTS SCT050CB BKN250=



000
FTUS42 KTBW 212339
TAFRSW
TAF
KRSW 212339Z 2200/2224 30009KT P6SM SKC
     FM220400 31006KT P6SM SCT250
     FM222000 29006KT P6SM VCTS SCT050CB BKN250=



000
FTUS42 KTBW 212339
TAFPIE
TAF
KPIE 212339Z 2200/2224 32006KT P6SM FEW120
     FM221500 02004KT P6SM SCT250
     FM222000 33009KT P6SM SCT200=



000
FTUS42 KTBW 212055 AAA
TAFTPA
TAF AMD
KTPA 212055Z 2121/2218 28011KT P6SM FEW040 SCT250
     FM220100 VRB06KT P6SM SCT250
     FM221400 36007KT P6SM FEW030 SCT250=



000
FTUS42 KTBW 212055 AAA
TAFTPA
TAF AMD
KTPA 212055Z 2121/2218 28011KT P6SM FEW040 SCT250
     FM220100 VRB06KT P6SM SCT250
     FM221400 36007KT P6SM FEW030 SCT250=



000
FTUS42 KTBW 211739
TAFSRQ
TAF
KSRQ 211739Z 2118/2218 29013KT P6SM SCT250
     FM220100 VRB06KT P6SM FEW250
     FM221400 34008KT P6SM FEW030 SCT250=



000
FTUS42 KTBW 211739
TAFRSW
TAF
KRSW 211739Z 2118/2218 33009KT P6SM SCT040 SCT250
     FM220000 VRB03KT P6SM SCT250
     FM221400 35006KT P6SM FEW030 SCT250=



000
FTUS42 KTBW 211739
TAFFMY
TAF
KFMY 211739Z 2118/2218 29011KT P6SM FEW040 SCT250
     FM220100 VRB04KT P6SM SCT250
     FM221400 33006KT P6SM FEW030 SCT250=



000
FTUS42 KTBW 211739
TAFPIE
TAF
KPIE 211739Z 2118/2218 32010KT P6SM FEW030 SCT250
     FM220100 VRB05KT P6SM SCT250
     FM221400 01007KT P6SM FEW030 SCT250=



000
FTUS42 KTBW 211739
TAFTPA
TAF
KTPA 211739Z 2118/2218 27009KT P6SM SCT035 SCT250
     FM211900 28011KT P6SM FEW040 SCT250
     FM220100 VRB06KT P6SM SCT250
     FM221400 36007KT P6SM FEW030 SCT250=



000
FTUS42 KTBW 211458 AAA
TAFTPA
TAF AMD
KTPA 211458Z 2115/2212 27008KT P6SM SCT035 SCT250
     FM211900 28010KT P6SM FEW040 SCT250
     FM220100 29006KT P6SM SCT250=



000
FTUS42 KTBW 211458 AAA
TAFTPA
TAF AMD
KTPA 211458Z 2115/2212 27008KT P6SM SCT035 SCT250
     FM211900 28010KT P6SM FEW040 SCT250
     FM220100 29006KT P6SM SCT250=



000
FTUS42 KTBW 211126
TAFRSW
TAF
KRSW 211126Z 2112/2212 VRB04KT P6SM FEW250
     FM211500 30008KT P6SM FEW030 SCT250
     FM211800 27011KT P6SM SCT050 SCT250
     FM220000 VRB06KT P6SM SCT250=



000
FTUS42 KTBW 211126
TAFFMY
TAF
KFMY 211126Z 2112/2212 VRB04KT P6SM FEW250
     FM211500 30008KT P6SM FEW030 SCT250
     FM211700 28011KT P6SM SCT050 SCT250
     FM220100 VRB06KT P6SM SCT250=



000
FTUS42 KTBW 211126
TAFSRQ
TAF
KSRQ 211126Z 2112/2212 VRB06KT P6SM FEW250
     FM211700 28009KT P6SM SCT250
     FM220100 VRB06KT P6SM FEW250=



000
FTUS42 KTBW 211126
TAFPIE
TAF
KPIE 211126Z 2112/2212 VRB05KT P6SM FEW025 SCT250
     FM211600 30009KT P6SM FEW050 SCT250
     FM220100 29005KT P6SM SCT250=



000
FTUS42 KTBW 211126
TAFTPA
TAF
KTPA 211126Z 2112/2212 VRB06KT P6SM FEW030 SCT250
     FM211900 28010KT P6SM FEW040 SCT250
     FM220100 29006KT P6SM SCT250=



000
FTUS42 KTBW 210900 AAA
TAFTPA
TAF AMD
KTPA 210900Z 2109/2206 VRB06KT P6SM FEW035 SCT250
     FM211900 28010KT P6SM FEW040 SCT250
     FM220100 29006KT P6SM SCT250=



000
FTUS42 KTBW 210900 AAA
TAFTPA
TAF AMD
KTPA 210900Z 2109/2206 VRB06KT P6SM FEW035 SCT250
     FM211900 28010KT P6SM FEW040 SCT250
     FM220100 29006KT P6SM SCT250=



000
FTUS42 KTBW 210533
TAFRSW
TAF
KRSW 210533Z 2106/2206 VRB06KT P6SM SCT250
     FM211800 27011KT P6SM SCT050 SCT250
     FM220000 VRB06KT P6SM SCT250=



000
FTUS42 KTBW 210533
TAFTPA
TAF
KTPA 210533Z 2106/2206 VRB06KT P6SM FEW035 SCT250
     FM211900 28010KT P6SM FEW040 SCT250
     FM220100 29006KT P6SM SCT250=



000
FTUS42 KTBW 210533
TAFPIE
TAF
KPIE 210533Z 2106/2206 VRB05KT P6SM FEW025 SCT250
     FM211600 30009KT P6SM FEW050 SCT250
     FM220100 29005KT P6SM SCT250=



000
FTUS42 KTBW 210533
TAFFMY
TAF
KFMY 210533Z 2106/2206 VRB06KT P6SM SCT250
     FM211700 28011KT P6SM SCT050 SCT250
     FM220100 VRB06KT P6SM SCT250=



000
FTUS42 KTBW 210533
TAFSRQ
TAF
KSRQ 210533Z 2106/2206 VRB06KT P6SM FEW250
     FM211700 28009KT P6SM SCT250
     FM220100 VRB06KT P6SM FEW250=



000
FTUS42 KTBW 210258 AAB
TAFTPA
TAF AMD
KTPA 210258Z 2103/2124 29006KT P6SM FEW035 SCT250
     FM211900 28010KT P6SM FEW040 SCT250=



000
FTUS42 KTBW 210250 AAA
TAFRSW
TAF AMD
KRSW 210250Z 2103/2124 VRB06KT P6SM VCSH SCT060 SCT250
     FM210400 30006KT P6SM SCT250
     FM211800 27010KT P6SM SCT050 SCT250=



000
FTUS42 KTBW 210249 AAB
TAFFMY
TAF AMD
KFMY 210249Z 2103/2124 32008KT P6SM VCSH SCT060 SCT250
     FM210500 33004KT P6SM SCT250
     FM211700 28008KT P6SM SCT050 SCT250=



000
FTUS42 KTBW 210109 AAA
TAFFMY
TAF AMD
KFMY 210109Z 2101/2124 29008KT P6SM VCSH SCT060 SCT250
     FM210300 31004KT P6SM SCT250
     FM211700 28008KT P6SM SCT050 SCT250=



000
FTUS42 KTBW 210100 AAA
TAFTPA
TAF AMD
KTPA 210100Z 2101/2124 31006KT P6SM SCT250
     FM210300 29006KT P6SM SCT250
     FM211900 28010KT P6SM FEW040 SCT250=



000
FTUS42 KTBW 210100 AAA
TAFTPA
TAF AMD
KTPA 210100Z 2101/2124 31006KT P6SM SCT250
     FM210300 29006KT P6SM SCT250
     FM211900 28010KT P6SM FEW040 SCT250=



000
FTUS42 KTBW 202335
TAFFMY
TAF
KFMY 202335Z 2100/2124 29008KT P6SM SCT060 SCT250
     FM210400 31004KT P6SM SCT250
     FM211700 28008KT P6SM SCT050 SCT250=



000
FTUS42 KTBW 202335
TAFPIE
TAF
KPIE 202335Z 2100/2124 29010KT P6SM SKC
     FM210300 28005KT P6SM SCT250
     FM211600 30009KT P6SM FEW050 SCT250=



000
FTUS42 KTBW 202335
TAFRSW
TAF
KRSW 202335Z 2100/2124 00000KT P6SM SCT060 SCT250
     FM210400 30006KT P6SM SCT250
     FM211800 27010KT P6SM SCT050 SCT250=



000
FTUS42 KTBW 202335
TAFSRQ
TAF
KSRQ 202335Z 2100/2124 30010KT P6SM SCT250
     FM210400 30005KT P6SM SCT250
     FM211700 28009KT P6SM FEW250=



000
FTUS42 KTBW 202335
TAFTPA
TAF
KTPA 202335Z 2100/2124 30010KT P6SM SCT250
     FM210300 29006KT P6SM SCT250
     FM211900 28010KT P6SM FEW040 SCT250=



000
FTUS42 KTBW 202051 AAA
TAFPIE
TAF AMD
KPIE 202051Z 2021/2118 30010KT P6SM SCT035 SCT250
     FM210100 29005KT P6SM SCT250
     FM211500 30009KT P6SM SCT250=



000
FTUS42 KTBW 202050 AAA
TAFTPA
TAF AMD
KTPA 202050Z 2021/2118 26008KT P6SM FEW035 SCT250
     FM202200 27010KT P6SM SCT035 SCT250
     FM210200 28004KT P6SM SCT250
     FM211500 29008KT P6SM SCT250=



000
FTUS42 KTBW 201733
TAFTPA
TAF
KTPA 201733Z 2018/2118 26008KT P6SM VCTS FEW025CB SCT250
     FM202200 27010KT P6SM SCT035 SCT250
     FM210200 28004KT P6SM SCT250
     FM211500 29008KT P6SM SCT250=



000
FTUS42 KTBW 201733
TAFPIE
TAF
KPIE 201733Z 2018/2118 30008KT P6SM VCTS FEW025CB SCT250
     FM202100 29010KT P6SM SCT035 SCT250
     FM210100 29005KT P6SM SCT250
     FM211500 30009KT P6SM SCT250=



000
FTUS42 KTBW 201733
TAFTPA
TAF
KTPA 201733Z 2018/2118 26008KT P6SM VCTS FEW025CB SCT250
     FM202200 27010KT P6SM SCT035 SCT250
     FM210200 28004KT P6SM SCT250
     FM211500 29008KT P6SM SCT250=



000
FTUS42 KTBW 201733
TAFRSW
TAF
KRSW 201733Z 2018/2118 27005KT P6SM VCTS SCT025CB SCT250
     FM202300 29009KT P6SM FEW040 SCT250
     FM210400 VRB03KT P6SM SCT250
     FM211600 32007KT P6SM SCT250=



000
FTUS42 KTBW 201733
TAFSRQ
TAF
KSRQ 201733Z 2018/2118 29009KT P6SM FEW030 SCT250
     FM210300 30005KT P6SM SCT250
     FM211600 29009KT P6SM SCT250=



000
FTUS42 KTBW 201733
TAFFMY
TAF
KFMY 201733Z 2018/2118 27007KT P6SM VCTS FEW025CB SCT250
     FM210100 31007KT P6SM FEW035 SCT250
     FM210400 VRB03KT P6SM SCT250
     FM211600 29007KT P6SM SCT250=



000
FTUS42 KTBW 201733
TAFSRQ
TAF
KSRQ 201733Z 2018/2118 29009KT P6SM FEW030 SCT250
     FM210300 30005KT P6SM SCT250
     FM211600 29009KT P6SM SCT250=



000
FTUS42 KTBW 201733
TAFPIE
TAF
KPIE 201733Z 2018/2118 30008KT P6SM VCTS FEW025CB SCT250
     FM202100 29010KT P6SM SCT035 SCT250
     FM210100 29005KT P6SM SCT250
     FM211500 30009KT P6SM SCT250=



000
FTUS42 KTBW 201733
TAFRSW
TAF
KRSW 201733Z 2018/2118 27005KT P6SM VCTS SCT025CB SCT250
     FM202300 29009KT P6SM FEW040 SCT250
     FM210400 VRB03KT P6SM SCT250
     FM211600 32007KT P6SM SCT250=



000
FTUS42 KTBW 201733
TAFFMY
TAF
KFMY 201733Z 2018/2118 27007KT P6SM VCTS FEW025CB SCT250
     FM210100 31007KT P6SM FEW035 SCT250
     FM210400 VRB03KT P6SM SCT250
     FM211600 29007KT P6SM SCT250=



000
FTUS42 KTBW 201501 AAA
TAFTPA
TAF AMD
KTPA 201501Z 2015/2112 24006KT P6SM SCT020 SCT250
     FM201700 28010KT P6SM VCTS SCT030CB SCT250
     FM202200 28009KT P6SM SCT040 SCT250
     FM210100 29004KT P6SM SCT250=



000
FTUS42 KTBW 201120
TAFFMY
TAF
KFMY 201120Z 2012/2112 VRB03KT P6SM FEW020
     FM201600 29008KT P6SM VCTS SCT030CB SCT250
     FM202300 32005KT P6SM SCT040 SCT250=



000
FTUS42 KTBW 201120
TAFSRQ
TAF
KSRQ 201120Z 2012/2112 VRB03KT P6SM FEW015
     FM201400 28008KT P6SM VCSH SCT030
     FM201700 28010KT P6SM SCT035 SCT250
     FM210100 31005KT P6SM FEW020=



000
FTUS42 KTBW 201120
TAFPIE
TAF
KPIE 201120Z 2012/2112 27004KT P6SM FEW015
     FM201400 30006KT P6SM VCSH SCT030 SCT250
     FM201700 29010KT P6SM SCT035 SCT250
     FM210100 29005KT P6SM FEW020 SCT250=



000
FTUS42 KTBW 201120
TAFRSW
TAF
KRSW 201120Z 2012/2112 04004KT P6SM FEW020
     FM201600 28008KT P6SM VCTS SCT030CB SCT250
     FM202300 30005KT P6SM SCT040 SCT250=



000
FTUS42 KTBW 201120
TAFTPA
TAF
KTPA 201120Z 2012/2112 31004KT P6SM FEW015
     FM201400 28006KT P6SM VCSH SCT030 SCT250
     FM201700 28010KT P6SM SCT035 SCT250
     FM210100 29004KT P6SM SCT250=



000
FTUS42 KTBW 201120
TAFFMY
TAF
KFMY 201120Z 2012/2112 VRB03KT P6SM FEW020
     FM201600 29008KT P6SM VCTS SCT030CB SCT250
     FM202300 32005KT P6SM SCT040 SCT250=



000
FTUS42 KTBW 201120
TAFPIE
TAF
KPIE 201120Z 2012/2112 27004KT P6SM FEW015
     FM201400 30006KT P6SM VCSH SCT030 SCT250
     FM201700 29010KT P6SM SCT035 SCT250
     FM210100 29005KT P6SM FEW020 SCT250=



000
FTUS42 KTBW 201120
TAFSRQ
TAF
KSRQ 201120Z 2012/2112 VRB03KT P6SM FEW015
     FM201400 28008KT P6SM VCSH SCT030
     FM201700 28010KT P6SM SCT035 SCT250
     FM210100 31005KT P6SM FEW020=



000
FTUS42 KTBW 201120
TAFRSW
TAF
KRSW 201120Z 2012/2112 04004KT P6SM FEW020
     FM201600 28008KT P6SM VCTS SCT030CB SCT250
     FM202300 30005KT P6SM SCT040 SCT250=



000
FTUS42 KTBW 201120
TAFTPA
TAF
KTPA 201120Z 2012/2112 31004KT P6SM FEW015
     FM201400 28006KT P6SM VCSH SCT030 SCT250
     FM201700 28010KT P6SM SCT035 SCT250
     FM210100 29004KT P6SM SCT250=



000
FTUS42 KTBW 200901 AAA
TAFTPA
TAF AMD
KTPA 200901Z 2009/2106 VRB03KT P6SM FEW015
     FM201400 28006KT P6SM VCSH SCT030 SCT250
     FM201700 28010KT P6SM SCT035 SCT250
     FM210100 29004KT P6SM SCT250=



000
FTUS42 KTBW 200901 AAA
TAFTPA
TAF AMD
KTPA 200901Z 2009/2106 VRB03KT P6SM FEW015
     FM201400 28006KT P6SM VCSH SCT030 SCT250
     FM201700 28010KT P6SM SCT035 SCT250
     FM210100 29004KT P6SM SCT250=



000
FTUS42 KTBW 200525
TAFFMY
TAF
KFMY 200525Z 2006/2106 08004KT P6SM SCT050
     FM200800 VRB03KT P6SM SKC
     FM201600 29008KT P6SM VCTS SCT030CB SCT250
     FM202300 32005KT P6SM SCT040 SCT250=



000
FTUS42 KTBW 200525
TAFTPA
TAF
KTPA 200525Z 2006/2106 33004KT P6SM FEW025 BKN100
     FM201000 VRB03KT P6SM FEW020
     FM201400 28006KT P6SM VCSH SCT030 SCT250
     FM201700 28010KT P6SM SCT035 SCT250
     FM210100 29004KT P6SM SCT250=



000
FTUS42 KTBW 200525
TAFRSW
TAF
KRSW 200525Z 2006/2106 04004KT P6SM SCT050
     FM200800 VRB03KT P6SM SKC
     FM201600 28008KT P6SM VCTS SCT030CB SCT250
     FM202300 30005KT P6SM SCT040 SCT250=



000
FTUS42 KTBW 200525
TAFPIE
TAF
KPIE 200525Z 2006/2106 32004KT P6SM SCT100
     FM201400 30006KT P6SM VCSH SCT030 SCT250
     FM201700 29010KT P6SM SCT035 SCT250
     FM210100 29005KT P6SM FEW020 SCT250=



000
FTUS42 KTBW 200525
TAFSRQ
TAF
KSRQ 200525Z 2006/2106 33005KT P6SM OVC080
     FM200900 VRB04KT P6SM SCT100
     FM201400 28008KT P6SM VCSH SCT025
     FM201700 28010KT P6SM SCT035 SCT250
     FM210100 31005KT P6SM FEW020=



    US Dept of Commerce
    National Oceanic and Atmospheric Administration
    National Weather Service
    1325 East West Highway
    Silver Spring, MD 20910
    Page Author: NWS Internet Services Team
Disclaimer
Information Quality
Credits
Glossary
Privacy Policy
Freedom of Information Act (FOIA)
About Us
Career Opportunities